This demonstration page uses our WeatherBlox Daily Observations layout. Learn more.

36.17497, -115.13722

Hourly Observations for September 22, 2019

Temp ( °F °C ) Dew Point ( °F °C ) Humidity (%) Winds ( mph kmh ) Pressure ( in mb ) Visibility ( mi km ) Precip ( " mm )
12:53 am 00:53 Clear 69 20.6 29 -1.7 22 22 NW 6 9 29.94 1014 10 16.09344 0 0
1:53 am 01:53 Clear 68 20 30 -1.1 24 24 W 6 9 29.94 1014 10 16.09344 0 0
2:53 am 02:53 Clear 67 19.4 32 0 27 27 W 5 7 29.94 1014 10 16.09344 0 0
3:53 am 03:53 Clear 65 18.3 28 -2.2 25 25 E 3 6 29.94 1014 10 16.09344 0 0
5:53 am 05:53 Clear 64 17.8 30 -1.1 28 28 Calm 29.97 1015 10 16.09344 0 0
6:53 am 06:53 Sunny 62 16.7 32 0 32 32 NW 3 6 30 1016 10 16.09344 0 0
7:53 am 07:53 Sunny 68 20 32 0 26 26 NNW 3 6 30 1016 10 16.09344 0 0
8:53 am 08:53 Sunny 73 22.8 31 -0.6 21 21 Calm 30 1016 10 16.09344 0 0
9:53 am 09:53 Sunny 77 25 31 -0.6 18 18 SSE 7 11 30.03 1017 10 16.09344 0 0
10:53 am 10:53 Sunny 80 26.7 28 -2.2 15 15 Calm 30 1016 10 16.09344 0 0
11:53 am 11:53 Sunny 81 27.2 27 -2.8 14 14 E 7 11 30 1016 10 16.09344 0 0
12:53 pm 12:53 Sunny 83 28.3 28 -2.2 13 13 VRB 5 7 29.97 1015 10 16.09344 0 0
1:53 pm 13:53 Sunny 86 30 27 -2.8 12 12 ESE 9 15 29.94 1014 10 16.09344 0 0
2:53 pm 14:53 Sunny 86 30 26 -3.3 11 11 SSE 8 13 29.91 1013 10 16.09344 0 0
3:53 pm 15:53 Sunny 87 30.6 26 -3.3 11 11 S 8 13 29.88 1012 10 16.09344 0 0
4:53 pm 16:53 Sunny 87 30.6 25 -3.9 10 10 SSE 12 19 29.88 1012 10 16.09344 0 0
5:53 pm 17:53 Sunny 86 30 26 -3.3 11 11 ESE 12 19 29.85 1011 10 16.09344 0 0
6:53 pm 18:53 Clear 84 28.9 24 -4.4 11 11 ESE 9 15 29.88 1012 10 16.09344 0 0
7:53 pm 19:53 Clear 81 27.2 23 -5 12 12 Calm 29.88 1012 10 16.09344 0 0
8:53 pm 20:53 Clear 79 26.1 25 -3.9 14 14 WNW 3 6 29.88 1012 10 16.09344 0 0
9:53 pm 21:53 Clear 78 25.6 30 -1.1 17 17 SSW 3 6 29.88 1012 10 16.09344 0 0
10:53 pm 22:53 Clear 78 25.6 27 -2.8 15 15 Calm 29.88 1012 10 16.09344 0 0
11:53 pm 23:53 Clear 75 23.9 26 -3.3 16 16 Calm 29.85 1011 10 16.09344 0 0

Powered by AerisWeather